sensor_id;sensor_type;location;lat;lon;timestamp;P1;durP1;ratioP1;P2;durP2;ratioP2
2538;SDS011;1280;49.760;9.664;2022-12-07T00:01:18;11.77;;;7.15;;
2538;SDS011;1280;49.760;9.664;2022-12-07T00:03:49;13.40;;;7.82;;
2538;SDS011;1280;49.760;9.664;2022-12-07T00:06:18;15.15;;;8.80;;
2538;SDS011;1280;49.760;9.664;2022-12-07T00:08:47;18.15;;;8.88;;
2538;SDS011;1280;49.760;9.664;2022-12-07T00:11:16;14.23;;;8.73;;
2538;SDS011;1280;49.760;9.664;2022-12-07T00:13:46;12.98;;;8.55;;
2538;SDS011;1280;49.760;9.664;2022-12-07T00:16:18;14.82;;;9.00;;
2538;SDS011;1280;49.760;9.664;2022-12-07T00:18:49;15.27;;;8.95;;
2538;SDS011;1280;49.760;9.664;2022-12-07T00:21:18;17.05;;;9.60;;
2538;SDS011;1280;49.760;9.664;2022-12-07T00:23:48;21.60;;;10.88;;
2538;SDS011;1280;49.760;9.664;2022-12-07T00:26:17;17.08;;;10.48;;
2538;SDS011;1280;49.760;9.664;2022-12-07T00:28:46;16.80;;;10.32;;
2538;SDS011;1280;49.760;9.664;2022-12-07T00:31:16;19.95;;;11.00;;
2538;SDS011;1280;49.760;9.664;2022-12-07T00:33:45;18.75;;;11.85;;
2538;SDS011;1280;49.760;9.664;2022-12-07T00:36:16;19.48;;;11.75;;
2538;SDS011;1280;49.760;9.664;2022-12-07T00:38:52;17.00;;;10.40;;
2538;SDS011;1280;49.760;9.664;2022-12-07T00:41:21;22.75;;;11.50;;
2538;SDS011;1280;49.760;9.664;2022-12-07T00:43:50;18.92;;;10.73;;
2538;SDS011;1280;49.760;9.664;2022-12-07T00:46:19;19.42;;;11.00;;
2538;SDS011;1280;49.760;9.664;2022-12-07T00:48:49;19.08;;;11.18;;
2538;SDS011;1280;49.760;9.664;2022-12-07T00:51:19;19.08;;;10.98;;
2538;SDS011;1280;49.760;9.664;2022-12-07T00:53:48;20.95;;;10.93;;
2538;SDS011;1280;49.760;9.664;2022-12-07T00:56:18;14.15;;;9.30;;
2538;SDS011;1280;49.760;9.664;2022-12-07T00:58:50;16.60;;;9.85;;
2538;SDS011;1280;49.760;9.664;2022-12-07T01:01:19;16.30;;;10.00;;
2538;SDS011;1280;49.760;9.664;2022-12-07T01:03:48;16.10;;;9.23;;
2538;SDS011;1280;49.760;9.664;2022-12-07T01:06:16;19.45;;;9.77;;
2538;SDS011;1280;49.760;9.664;2022-12-07T01:08:46;17.55;;;11.05;;
2538;SDS011;1280;49.760;9.664;2022-12-07T01:11:15;19.17;;;11.70;;
2538;SDS011;1280;49.760;9.664;2022-12-07T01:13:44;23.83;;;11.10;;
2538;SDS011;1280;49.760;9.664;2022-12-07T01:16:14;21.60;;;11.38;;
2538;SDS011;1280;49.760;9.664;2022-12-07T01:18:45;21.65;;;11.70;;
2538;SDS011;1280;49.760;9.664;2022-12-07T01:21:15;19.50;;;11.45;;
2538;SDS011;1280;49.760;9.664;2022-12-07T01:23:48;20.77;;;13.23;;
2538;SDS011;1280;49.760;9.664;2022-12-07T01:26:17;21.45;;;11.95;;
2538;SDS011;1280;49.760;9.664;2022-12-07T01:28:46;18.42;;;11.20;;
2538;SDS011;1280;49.760;9.664;2022-12-07T01:31:15;19.55;;;11.95;;
2538;SDS011;1280;49.760;9.664;2022-12-07T01:33:46;21.00;;;12.15;;
2538;SDS011;1280;49.760;9.664;2022-12-07T01:36:17;19.73;;;11.90;;
2538;SDS011;1280;49.760;9.664;2022-12-07T01:38:49;20.02;;;11.00;;
2538;SDS011;1280;49.760;9.664;2022-12-07T01:41:19;23.05;;;12.10;;
2538;SDS011;1280;49.760;9.664;2022-12-07T01:46:36;21.48;;;11.10;;
2538;SDS011;1280;49.760;9.664;2022-12-07T01:49:05;17.92;;;10.98;;
2538;SDS011;1280;49.760;9.664;2022-12-07T01:51:35;19.80;;;11.95;;
2538;SDS011;1280;49.760;9.664;2022-12-07T01:54:07;19.67;;;10.85;;
2538;SDS011;1280;49.760;9.664;2022-12-07T01:56:37;16.77;;;10.25;;
2538;SDS011;1280;49.760;9.664;2022-12-07T01:59:07;18.42;;;10.77;;
2538;SDS011;1280;49.760;9.664;2022-12-07T02:01:35;21.42;;;11.27;;
2538;SDS011;1280;49.760;9.664;2022-12-07T02:04:03;19.08;;;11.43;;
2538;SDS011;1280;49.760;9.664;2022-12-07T02:06:33;24.95;;;12.38;;
2538;SDS011;1280;49.760;9.664;2022-12-07T02:09:02;19.77;;;12.57;;
2538;SDS011;1280;49.760;9.664;2022-12-07T02:11:32;17.15;;;10.70;;
2538;SDS011;1280;49.760;9.664;2022-12-07T02:14:01;22.02;;;12.10;;
2538;SDS011;1280;49.760;9.664;2022-12-07T02:16:31;20.67;;;12.05;;
2538;SDS011;1280;49.760;9.664;2022-12-07T02:19:14;19.35;;;11.90;;
2538;SDS011;1280;49.760;9.664;2022-12-07T02:22:10;20.58;;;11.65;;
2538;SDS011;1280;49.760;9.664;2022-12-07T02:24:53;19.55;;;10.52;;
2538;SDS011;1280;49.760;9.664;2022-12-07T02:27:39;19.77;;;12.50;;
2538;SDS011;1280;49.760;9.664;2022-12-07T02:30:15;18.92;;;11.52;;
2538;SDS011;1280;49.760;9.664;2022-12-07T02:32:48;23.50;;;11.57;;
2538;SDS011;1280;49.760;9.664;2022-12-07T02:35:24;20.42;;;11.77;;
2538;SDS011;1280;49.760;9.664;2022-12-07T02:37:59;22.23;;;11.90;;
2538;SDS011;1280;49.760;9.664;2022-12-07T02:40:33;22.40;;;12.48;;
2538;SDS011;1280;49.760;9.664;2022-12-07T02:43:06;20.33;;;11.65;;
2538;SDS011;1280;49.760;9.664;2022-12-07T02:45:39;23.75;;;12.50;;
2538;SDS011;1280;49.760;9.664;2022-12-07T02:48:10;21.52;;;11.70;;
2538;SDS011;1280;49.760;9.664;2022-12-07T02:50:43;19.50;;;11.35;;
2538;SDS011;1280;49.760;9.664;2022-12-07T02:55:55;23.08;;;12.25;;
2538;SDS011;1280;49.760;9.664;2022-12-07T02:58:27;18.10;;;10.48;;
2538;SDS011;1280;49.760;9.664;2022-12-07T03:01:04;19.00;;;11.50;;
2538;SDS011;1280;49.760;9.664;2022-12-07T03:03:43;20.45;;;12.25;;
2538;SDS011;1280;49.760;9.664;2022-12-07T03:06:21;17.88;;;9.73;;
2538;SDS011;1280;49.760;9.664;2022-12-07T03:08:56;19.45;;;11.10;;
2538;SDS011;1280;49.760;9.664;2022-12-07T03:11:33;18.45;;;11.13;;
2538;SDS011;1280;49.760;9.664;2022-12-07T03:14:11;19.33;;;11.63;;
2538;SDS011;1280;49.760;9.664;2022-12-07T03:16:47;18.90;;;10.73;;
2538;SDS011;1280;49.760;9.664;2022-12-07T03:19:19;20.00;;;10.60;;
2538;SDS011;1280;49.760;9.664;2022-12-07T03:21:51;20.98;;;11.00;;
2538;SDS011;1280;49.760;9.664;2022-12-07T03:24:24;18.25;;;11.02;;
2538;SDS011;1280;49.760;9.664;2022-12-07T03:26:57;20.90;;;10.98;;
2538;SDS011;1280;49.760;9.664;2022-12-07T03:29:30;19.60;;;11.25;;
2538;SDS011;1280;49.760;9.664;2022-12-07T03:32:10;22.80;;;12.88;;
2538;SDS011;1280;49.760;9.664;2022-12-07T03:34:43;20.55;;;11.68;;
2538;SDS011;1280;49.760;9.664;2022-12-07T03:37:17;21.38;;;12.70;;
2538;SDS011;1280;49.760;9.664;2022-12-07T03:39:53;27.75;;;12.73;;
2538;SDS011;1280;49.760;9.664;2022-12-07T03:42:28;19.35;;;12.00;;
2538;SDS011;1280;49.760;9.664;2022-12-07T03:44:57;18.38;;;11.70;;
2538;SDS011;1280;49.760;9.664;2022-12-07T03:47:27;22.08;;;12.63;;
2538;SDS011;1280;49.760;9.664;2022-12-07T03:49:59;21.88;;;11.65;;
2538;SDS011;1280;49.760;9.664;2022-12-07T03:52:33;22.13;;;12.70;;
2538;SDS011;1280;49.760;9.664;2022-12-07T03:55:06;21.10;;;11.20;;
2538;SDS011;1280;49.760;9.664;2022-12-07T03:57:39;19.75;;;11.50;;
2538;SDS011;1280;49.760;9.664;2022-12-07T04:00:10;21.60;;;12.82;;
2538;SDS011;1280;49.760;9.664;2022-12-07T04:02:40;23.95;;;13.25;;
2538;SDS011;1280;49.760;9.664;2022-12-07T04:05:09;24.80;;;12.40;;
2538;SDS011;1280;49.760;9.664;2022-12-07T04:07:38;19.52;;;11.23;;
2538;SDS011;1280;49.760;9.664;2022-12-07T04:10:07;19.70;;;11.68;;
2538;SDS011;1280;49.760;9.664;2022-12-07T04:12:35;22.15;;;11.65;;
2538;SDS011;1280;49.760;9.664;2022-12-07T04:17:48;19.90;;;11.85;;
2538;SDS011;1280;49.760;9.664;2022-12-07T04:20:16;19.42;;;12.13;;
2538;SDS011;1280;49.760;9.664;2022-12-07T04:22:44;22.23;;;11.85;;
2538;SDS011;1280;49.760;9.664;2022-12-07T04:25:12;21.70;;;11.82;;
2538;SDS011;1280;49.760;9.664;2022-12-07T04:27:40;21.08;;;11.90;;
2538;SDS011;1280;49.760;9.664;2022-12-07T04:30:08;22.02;;;12.38;;
2538;SDS011;1280;49.760;9.664;2022-12-07T04:32:36;20.88;;;12.63;;
2538;SDS011;1280;49.760;9.664;2022-12-07T04:35:06;20.98;;;11.90;;
2538;SDS011;1280;49.760;9.664;2022-12-07T04:37:35;19.35;;;10.25;;
2538;SDS011;1280;49.760;9.664;2022-12-07T04:40:05;17.80;;;9.50;;
2538;SDS011;1280;49.760;9.664;2022-12-07T04:42:37;17.92;;;10.40;;
2538;SDS011;1280;49.760;9.664;2022-12-07T04:45:05;17.63;;;11.05;;
2538;SDS011;1280;49.760;9.664;2022-12-07T04:47:34;20.17;;;10.13;;
2538;SDS011;1280;49.760;9.664;2022-12-07T04:50:02;16.85;;;10.00;;
2538;SDS011;1280;49.760;9.664;2022-12-07T04:52:33;17.13;;;9.82;;
2538;SDS011;1280;49.760;9.664;2022-12-07T04:55:01;18.67;;;11.00;;
2538;SDS011;1280;49.760;9.664;2022-12-07T04:57:29;18.98;;;9.82;;
2538;SDS011;1280;49.760;9.664;2022-12-07T04:59:57;14.68;;;9.25;;
2538;SDS011;1280;49.760;9.664;2022-12-07T05:02:25;18.35;;;10.27;;
2538;SDS011;1280;49.760;9.664;2022-12-07T05:04:53;18.25;;;11.38;;
2538;SDS011;1280;49.760;9.664;2022-12-07T05:07:21;19.67;;;10.52;;
2538;SDS011;1280;49.760;9.664;2022-12-07T05:09:51;18.92;;;11.20;;
2538;SDS011;1280;49.760;9.664;2022-12-07T05:12:18;18.98;;;10.98;;
2538;SDS011;1280;49.760;9.664;2022-12-07T05:14:47;20.70;;;10.90;;
2538;SDS011;1280;49.760;9.664;2022-12-07T05:17:14;16.35;;;9.88;;
2538;SDS011;1280;49.760;9.664;2022-12-07T05:19:43;19.27;;;11.10;;
2538;SDS011;1280;49.760;9.664;2022-12-07T05:22:11;20.92;;;10.88;;
2538;SDS011;1280;49.760;9.664;2022-12-07T05:24:39;18.63;;;11.15;;
2538;SDS011;1280;49.760;9.664;2022-12-07T05:27:08;19.10;;;11.05;;
2538;SDS011;1280;49.760;9.664;2022-12-07T05:29:37;17.75;;;11.20;;
2538;SDS011;1280;49.760;9.664;2022-12-07T05:32:04;20.88;;;11.48;;
2538;SDS011;1280;49.760;9.664;2022-12-07T05:34:33;18.13;;;10.77;;
2538;SDS011;1280;49.760;9.664;2022-12-07T05:37:00;25.00;;;12.13;;
2538;SDS011;1280;49.760;9.664;2022-12-07T05:39:28;22.40;;;11.57;;
2538;SDS011;1280;49.760;9.664;2022-12-07T05:41:56;25.58;;;13.13;;
2538;SDS011;1280;49.760;9.664;2022-12-07T05:44:41;20.35;;;11.57;;
2538;SDS011;1280;49.760;9.664;2022-12-07T05:47:10;24.90;;;13.50;;
2538;SDS011;1280;49.760;9.664;2022-12-07T05:49:39;23.90;;;13.00;;
2538;SDS011;1280;49.760;9.664;2022-12-07T05:52:07;21.88;;;12.02;;
2538;SDS011;1280;49.760;9.664;2022-12-07T05:54:35;26.55;;;13.85;;
2538;SDS011;1280;49.760;9.664;2022-12-07T05:57:03;24.13;;;13.23;;
2538;SDS011;1280;49.760;9.664;2022-12-07T05:59:31;22.67;;;12.35;;
2538;SDS011;1280;49.760;9.664;2022-12-07T06:02:01;25.02;;;12.63;;
2538;SDS011;1280;49.760;9.664;2022-12-07T06:04:31;23.20;;;13.20;;
2538;SDS011;1280;49.760;9.664;2022-12-07T06:07:01;23.83;;;13.30;;
2538;SDS011;1280;49.760;9.664;2022-12-07T06:09:30;30.20;;;13.60;;
2538;SDS011;1280;49.760;9.664;2022-12-07T06:11:58;23.75;;;14.18;;
2538;SDS011;1280;49.760;9.664;2022-12-07T06:14:45;29.10;;;13.15;;
2538;SDS011;1280;49.760;9.664;2022-12-07T06:17:14;25.95;;;13.15;;
2538;SDS011;1280;49.760;9.664;2022-12-07T06:19:43;22.48;;;12.40;;
2538;SDS011;1280;49.760;9.664;2022-12-07T06:22:11;23.73;;;13.13;;
2538;SDS011;1280;49.760;9.664;2022-12-07T06:24:39;22.58;;;12.48;;
2538;SDS011;1280;49.760;9.664;2022-12-07T06:27:08;26.30;;;12.88;;
2538;SDS011;1280;49.760;9.664;2022-12-07T06:29:36;22.60;;;11.88;;
2538;SDS011;1280;49.760;9.664;2022-12-07T06:32:04;19.95;;;11.50;;
2538;SDS011;1280;49.760;9.664;2022-12-07T06:34:34;24.65;;;12.23;;
2538;SDS011;1280;49.760;9.664;2022-12-07T06:37:02;20.77;;;10.90;;
2538;SDS011;1280;49.760;9.664;2022-12-07T06:39:30;23.67;;;12.90;;
2538;SDS011;1280;49.760;9.664;2022-12-07T06:41:58;21.98;;;11.65;;
2538;SDS011;1280;49.760;9.664;2022-12-07T06:44:26;20.95;;;11.23;;
2538;SDS011;1280;49.760;9.664;2022-12-07T06:46:54;20.05;;;10.88;;
2538;SDS011;1280;49.760;9.664;2022-12-07T06:49:44;17.40;;;9.95;;
2538;SDS011;1280;49.760;9.664;2022-12-07T06:52:12;20.77;;;8.88;;
2538;SDS011;1280;49.760;9.664;2022-12-07T06:54:39;19.60;;;10.20;;
2538;SDS011;1280;49.760;9.664;2022-12-07T06:57:07;19.90;;;10.32;;
2538;SDS011;1280;49.760;9.664;2022-12-07T06:59:35;23.23;;;9.70;;
2538;SDS011;1280;49.760;9.664;2022-12-07T07:02:03;17.88;;;10.65;;
2538;SDS011;1280;49.760;9.664;2022-12-07T07:04:32;19.83;;;10.23;;
2538;SDS011;1280;49.760;9.664;2022-12-07T07:07:01;19.02;;;9.98;;
2538;SDS011;1280;49.760;9.664;2022-12-07T07:09:29;17.55;;;9.30;;
2538;SDS011;1280;49.760;9.664;2022-12-07T07:11:57;17.90;;;9.80;;
2538;SDS011;1280;49.760;9.664;2022-12-07T07:14:25;18.02;;;9.40;;
2538;SDS011;1280;49.760;9.664;2022-12-07T07:16:53;17.17;;;10.27;;
2538;SDS011;1280;49.760;9.664;2022-12-07T07:19:21;17.80;;;10.52;;
2538;SDS011;1280;49.760;9.664;2022-12-07T07:21:49;18.38;;;9.88;;
2538;SDS011;1280;49.760;9.664;2022-12-07T07:24:18;17.83;;;9.48;;
2538;SDS011;1280;49.760;9.664;2022-12-07T07:26:47;19.17;;;9.30;;
2538;SDS011;1280;49.760;9.664;2022-12-07T07:29:14;16.58;;;10.27;;
2538;SDS011;1280;49.760;9.664;2022-12-07T07:31:42;18.00;;;9.35;;
2538;SDS011;1280;49.760;9.664;2022-12-07T07:34:10;17.33;;;10.07;;
2538;SDS011;1280;49.760;9.664;2022-12-07T07:36:39;17.95;;;9.60;;
2538;SDS011;1280;49.760;9.664;2022-12-07T07:39:07;19.00;;;10.48;;
2538;SDS011;1280;49.760;9.664;2022-12-07T07:41:36;16.40;;;9.80;;
2538;SDS011;1280;49.760;9.664;2022-12-07T07:44:06;23.63;;;10.85;;
2538;SDS011;1280;49.760;9.664;2022-12-07T07:46:34;15.30;;;9.13;;
2538;SDS011;1280;49.760;9.664;2022-12-07T07:49:02;18.70;;;9.75;;
2538;SDS011;1280;49.760;9.664;2022-12-07T07:51:30;15.80;;;9.30;;
2538;SDS011;1280;49.760;9.664;2022-12-07T07:53:58;17.15;;;9.48;;
2538;SDS011;1280;49.760;9.664;2022-12-07T07:56:26;15.75;;;9.30;;
2538;SDS011;1280;49.760;9.664;2022-12-07T07:58:55;17.42;;;9.30;;
2538;SDS011;1280;49.760;9.664;2022-12-07T08:01:23;14.52;;;9.10;;
2538;SDS011;1280;49.760;9.664;2022-12-07T08:03:51;20.13;;;9.23;;
2538;SDS011;1280;49.760;9.664;2022-12-07T08:06:19;13.18;;;8.50;;
2538;SDS011;1280;49.760;9.664;2022-12-07T08:08:48;22.10;;;10.10;;
2538;SDS011;1280;49.760;9.664;2022-12-07T08:11:16;16.70;;;9.50;;
2538;SDS011;1280;49.760;9.664;2022-12-07T08:13:50;14.27;;;8.85;;
2538;SDS011;1280;49.760;9.664;2022-12-07T08:16:19;14.15;;;8.57;;
2538;SDS011;1280;49.760;9.664;2022-12-07T08:18:47;15.35;;;8.65;;
2538;SDS011;1280;49.760;9.664;2022-12-07T08:21:15;16.02;;;9.57;;
2538;SDS011;1280;49.760;9.664;2022-12-07T08:23:43;14.15;;;8.40;;
2538;SDS011;1280;49.760;9.664;2022-12-07T08:26:12;15.90;;;8.55;;
2538;SDS011;1280;49.760;9.664;2022-12-07T08:28:42;20.13;;;9.43;;
2538;SDS011;1280;49.760;9.664;2022-12-07T08:31:11;15.07;;;9.20;;
2538;SDS011;1280;49.760;9.664;2022-12-07T08:33:44;15.40;;;9.27;;
2538;SDS011;1280;49.760;9.664;2022-12-07T08:36:13;13.93;;;8.55;;
2538;SDS011;1280;49.760;9.664;2022-12-07T08:38:41;17.35;;;9.70;;
2538;SDS011;1280;49.760;9.664;2022-12-07T08:41:30;15.20;;;9.15;;
2538;SDS011;1280;49.760;9.664;2022-12-07T08:43:58;13.80;;;8.00;;
2538;SDS011;1280;49.760;9.664;2022-12-07T08:46:28;17.88;;;10.27;;
2538;SDS011;1280;49.760;9.664;2022-12-07T08:49:05;16.90;;;9.60;;
2538;SDS011;1280;49.760;9.664;2022-12-07T08:51:35;13.65;;;9.20;;
2538;SDS011;1280;49.760;9.664;2022-12-07T08:54:04;13.63;;;8.68;;
2538;SDS011;1280;49.760;9.664;2022-12-07T08:56:36;16.40;;;10.15;;
2538;SDS011;1280;49.760;9.664;2022-12-07T08:59:04;16.27;;;10.50;;
2538;SDS011;1280;49.760;9.664;2022-12-07T09:01:33;15.93;;;9.52;;
2538;SDS011;1280;49.760;9.664;2022-12-07T09:04:01;17.38;;;9.70;;
2538;SDS011;1280;49.760;9.664;2022-12-07T09:06:31;18.27;;;10.10;;
2538;SDS011;1280;49.760;9.664;2022-12-07T09:08:59;14.50;;;9.35;;
2538;SDS011;1280;49.760;9.664;2022-12-07T09:11:28;14.90;;;9.23;;
2538;SDS011;1280;49.760;9.664;2022-12-07T09:13:57;15.43;;;9.18;;
2538;SDS011;1280;49.760;9.664;2022-12-07T09:16:25;15.10;;;9.57;;
2538;SDS011;1280;49.760;9.664;2022-12-07T09:18:53;14.90;;;9.00;;
2538;SDS011;1280;49.760;9.664;2022-12-07T09:21:21;16.48;;;10.00;;
2538;SDS011;1280;49.760;9.664;2022-12-07T09:23:50;16.88;;;9.98;;
2538;SDS011;1280;49.760;9.664;2022-12-07T09:26:24;19.30;;;10.70;;
2538;SDS011;1280;49.760;9.664;2022-12-07T09:28:52;16.52;;;9.55;;
2538;SDS011;1280;49.760;9.664;2022-12-07T09:31:20;14.82;;;8.90;;
2538;SDS011;1280;49.760;9.664;2022-12-07T09:33:53;14.15;;;8.52;;
2538;SDS011;1280;49.760;9.664;2022-12-07T09:36:22;15.38;;;8.95;;
2538;SDS011;1280;49.760;9.664;2022-12-07T09:38:51;19.50;;;10.63;;
2538;SDS011;1280;49.760;9.664;2022-12-07T09:41:19;16.98;;;10.27;;
2538;SDS011;1280;49.760;9.664;2022-12-07T09:43:49;14.63;;;8.95;;
2538;SDS011;1280;49.760;9.664;2022-12-07T09:46:19;21.48;;;10.65;;
2538;SDS011;1280;49.760;9.664;2022-12-07T09:48:48;15.20;;;8.88;;
2538;SDS011;1280;49.760;9.664;2022-12-07T09:51:18;15.95;;;8.95;;
2538;SDS011;1280;49.760;9.664;2022-12-07T09:53:52;13.50;;;8.18;;
2538;SDS011;1280;49.760;9.664;2022-12-07T09:56:23;18.58;;;9.40;;
2538;SDS011;1280;49.760;9.664;2022-12-07T09:58:54;16.52;;;9.00;;
2538;SDS011;1280;49.760;9.664;2022-12-07T10:01:30;16.08;;;8.48;;
2538;SDS011;1280;49.760;9.664;2022-12-07T10:04:01;16.05;;;9.52;;
2538;SDS011;1280;49.760;9.664;2022-12-07T10:06:36;14.93;;;10.00;;
2538;SDS011;1280;49.760;9.664;2022-12-07T10:09:09;15.77;;;10.05;;
2538;SDS011;1280;49.760;9.664;2022-12-07T10:14:30;17.95;;;10.60;;
2538;SDS011;1280;49.760;9.664;2022-12-07T10:17:30;14.80;;;8.77;;
2538;SDS011;1280;49.760;9.664;2022-12-07T10:20:14;16.50;;;9.82;;
2538;SDS011;1280;49.760;9.664;2022-12-07T10:22:56;14.18;;;9.43;;
2538;SDS011;1280;49.760;9.664;2022-12-07T10:25:27;17.70;;;10.38;;
2538;SDS011;1280;49.760;9.664;2022-12-07T10:28:02;17.13;;;9.35;;
2538;SDS011;1280;49.760;9.664;2022-12-07T10:30:46;15.57;;;8.77;;
2538;SDS011;1280;49.760;9.664;2022-12-07T10:33:27;18.25;;;10.60;;
2538;SDS011;1280;49.760;9.664;2022-12-07T10:35:57;14.52;;;8.95;;
2538;SDS011;1280;49.760;9.664;2022-12-07T10:38:26;15.40;;;9.55;;
2538;SDS011;1280;49.760;9.664;2022-12-07T10:41:05;15.05;;;9.98;;
2538;SDS011;1280;49.760;9.664;2022-12-07T10:43:34;15.90;;;9.93;;
2538;SDS011;1280;49.760;9.664;2022-12-07T10:49:13;17.50;;;10.10;;
2538;SDS011;1280;49.760;9.664;2022-12-07T10:51:59;18.45;;;9.85;;
2538;SDS011;1280;49.760;9.664;2022-12-07T10:54:32;16.30;;;9.77;;
2538;SDS011;1280;49.760;9.664;2022-12-07T11:00:08;17.77;;;9.68;;
2538;SDS011;1280;49.760;9.664;2022-12-07T11:02:45;14.88;;;8.63;;
2538;SDS011;1280;49.760;9.664;2022-12-07T11:05:33;19.25;;;9.88;;
2538;SDS011;1280;49.760;9.664;2022-12-07T11:08:13;19.25;;;9.50;;
2538;SDS011;1280;49.760;9.664;2022-12-07T11:10:49;18.45;;;11.10;;
2538;SDS011;1280;49.760;9.664;2022-12-07T11:13:27;16.63;;;10.23;;
2538;SDS011;1280;49.760;9.664;2022-12-07T11:16:02;15.85;;;9.32;;
2538;SDS011;1280;49.760;9.664;2022-12-07T11:18:45;17.75;;;10.13;;
2538;SDS011;1280;49.760;9.664;2022-12-07T11:21:24;12.73;;;8.38;;
2538;SDS011;1280;49.760;9.664;2022-12-07T11:24:00;13.98;;;8.32;;
2538;SDS011;1280;49.760;9.664;2022-12-07T11:26:34;13.40;;;8.77;;
2538;SDS011;1280;49.760;9.664;2022-12-07T11:29:37;14.05;;;8.27;;
2538;SDS011;1280;49.760;9.664;2022-12-07T11:32:21;13.30;;;7.97;;
2538;SDS011;1280;49.760;9.664;2022-12-07T11:34:59;13.93;;;8.77;;
2538;SDS011;1280;49.760;9.664;2022-12-07T11:37:33;16.08;;;8.80;;
2538;SDS011;1280;49.760;9.664;2022-12-07T11:40:08;14.60;;;8.48;;
2538;SDS011;1280;49.760;9.664;2022-12-07T11:42:45;15.52;;;7.88;;
2538;SDS011;1280;49.760;9.664;2022-12-07T11:45:21;13.43;;;8.45;;
2538;SDS011;1280;49.760;9.664;2022-12-07T11:47:52;12.27;;;7.22;;
2538;SDS011;1280;49.760;9.664;2022-12-07T11:50:26;14.07;;;8.18;;
2538;SDS011;1280;49.760;9.664;2022-12-07T11:53:00;11.02;;;7.55;;
2538;SDS011;1280;49.760;9.664;2022-12-07T11:55:32;13.50;;;7.47;;
2538;SDS011;1280;49.760;9.664;2022-12-07T11:58:12;12.63;;;7.28;;
2538;SDS011;1280;49.760;9.664;2022-12-07T12:00:50;14.80;;;7.15;;
2538;SDS011;1280;49.760;9.664;2022-12-07T12:03:23;10.77;;;6.85;;
2538;SDS011;1280;49.760;9.664;2022-12-07T12:05:58;15.45;;;7.70;;
2538;SDS011;1280;49.760;9.664;2022-12-07T12:08:27;12.55;;;6.97;;
2538;SDS011;1280;49.760;9.664;2022-12-07T12:11:21;12.60;;;7.53;;
2538;SDS011;1280;49.760;9.664;2022-12-07T12:14:10;12.60;;;6.90;;
2538;SDS011;1280;49.760;9.664;2022-12-07T12:17:11;14.02;;;7.13;;
2538;SDS011;1280;49.760;9.664;2022-12-07T12:20:00;10.20;;;6.30;;
2538;SDS011;1280;49.760;9.664;2022-12-07T12:22:34;11.05;;;6.35;;
2538;SDS011;1280;49.760;9.664;2022-12-07T12:25:06;13.60;;;7.18;;
2538;SDS011;1280;49.760;9.664;2022-12-07T12:27:42;11.05;;;6.07;;
2538;SDS011;1280;49.760;9.664;2022-12-07T12:30:24;12.98;;;6.35;;
2538;SDS011;1280;49.760;9.664;2022-12-07T12:33:12;11.98;;;6.45;;
2538;SDS011;1280;49.760;9.664;2022-12-07T12:38:48;12.15;;;5.30;;
2538;SDS011;1280;49.760;9.664;2022-12-07T12:44:39;11.05;;;5.60;;
2538;SDS011;1280;49.760;9.664;2022-12-07T12:50:21;10.75;;;5.85;;
2538;SDS011;1280;49.760;9.664;2022-12-07T12:52:56;10.23;;;5.95;;
2538;SDS011;1280;49.760;9.664;2022-12-07T12:58:40;13.15;;;5.20;;
2538;SDS011;1280;49.760;9.664;2022-12-07T13:04:18;9.10;;;5.15;;
2538;SDS011;1280;49.760;9.664;2022-12-07T13:07:09;8.45;;;5.18;;
2538;SDS011;1280;49.760;9.664;2022-12-07T13:09:41;10.27;;;5.22;;
2538;SDS011;1280;49.760;9.664;2022-12-07T13:12:12;9.63;;;5.35;;
2538;SDS011;1280;49.760;9.664;2022-12-07T13:14:53;9.70;;;6.05;;
2538;SDS011;1280;49.760;9.664;2022-12-07T13:20:40;11.27;;;6.70;;
2538;SDS011;1280;49.760;9.664;2022-12-07T13:23:15;11.85;;;7.10;;
2538;SDS011;1280;49.760;9.664;2022-12-07T13:25:54;11.93;;;7.00;;
2538;SDS011;1280;49.760;9.664;2022-12-07T13:28:32;16.70;;;7.70;;
2538;SDS011;1280;49.760;9.664;2022-12-07T13:31:14;17.15;;;8.13;;
2538;SDS011;1280;49.760;9.664;2022-12-07T13:33:50;12.85;;;7.35;;
2538;SDS011;1280;49.760;9.664;2022-12-07T13:36:19;12.30;;;7.07;;
2538;SDS011;1280;49.760;9.664;2022-12-07T13:38:52;10.80;;;7.00;;
2538;SDS011;1280;49.760;9.664;2022-12-07T13:41:23;12.75;;;7.10;;
2538;SDS011;1280;49.760;9.664;2022-12-07T13:43:53;15.13;;;7.20;;
2538;SDS011;1280;49.760;9.664;2022-12-07T13:46:32;13.40;;;7.28;;
2538;SDS011;1280;49.760;9.664;2022-12-07T13:49:15;15.18;;;6.30;;
2538;SDS011;1280;49.760;9.664;2022-12-07T13:51:45;12.52;;;7.13;;
2538;SDS011;1280;49.760;9.664;2022-12-07T13:54:15;14.30;;;7.47;;
2538;SDS011;1280;49.760;9.664;2022-12-07T13:56:43;12.80;;;7.45;;
2538;SDS011;1280;49.760;9.664;2022-12-07T13:59:16;11.60;;;7.15;;
2538;SDS011;1280;49.760;9.664;2022-12-07T14:01:47;11.70;;;7.32;;
2538;SDS011;1280;49.760;9.664;2022-12-07T14:04:16;12.98;;;6.93;;
2538;SDS011;1280;49.760;9.664;2022-12-07T14:07:00;11.30;;;6.82;;
2538;SDS011;1280;49.760;9.664;2022-12-07T14:09:54;13.98;;;7.82;;
2538;SDS011;1280;49.760;9.664;2022-12-07T14:12:23;12.07;;;8.00;;
2538;SDS011;1280;49.760;9.664;2022-12-07T14:14:52;11.90;;;7.25;;
2538;SDS011;1280;49.760;9.664;2022-12-07T14:17:23;19.20;;;8.95;;
2538;SDS011;1280;49.760;9.664;2022-12-07T14:19:52;13.27;;;7.68;;
2538;SDS011;1280;49.760;9.664;2022-12-07T14:22:24;12.75;;;7.70;;
2538;SDS011;1280;49.760;9.664;2022-12-07T14:25:09;12.88;;;8.10;;
2538;SDS011;1280;49.760;9.664;2022-12-07T14:27:53;10.95;;;6.78;;
2538;SDS011;1280;49.760;9.664;2022-12-07T14:30:24;9.85;;;5.85;;
2538;SDS011;1280;49.760;9.664;2022-12-07T14:32:56;15.98;;;7.20;;
2538;SDS011;1280;49.760;9.664;2022-12-07T14:35:26;11.60;;;7.05;;
2538;SDS011;1280;49.760;9.664;2022-12-07T14:37:55;10.57;;;6.43;;
2538;SDS011;1280;49.760;9.664;2022-12-07T14:40:26;11.60;;;6.90;;
2538;SDS011;1280;49.760;9.664;2022-12-07T14:42:56;14.45;;;7.47;;
2538;SDS011;1280;49.760;9.664;2022-12-07T14:45:27;12.65;;;7.80;;
2538;SDS011;1280;49.760;9.664;2022-12-07T14:47:56;13.15;;;7.90;;
2538;SDS011;1280;49.760;9.664;2022-12-07T14:50:44;14.00;;;7.60;;
2538;SDS011;1280;49.760;9.664;2022-12-07T14:53:39;20.80;;;6.93;;
2538;SDS011;1280;49.760;9.664;2022-12-07T14:56:10;12.18;;;7.80;;
2538;SDS011;1280;49.760;9.664;2022-12-07T14:58:38;11.85;;;6.80;;
2538;SDS011;1280;49.760;9.664;2022-12-07T15:01:06;12.18;;;6.97;;
2538;SDS011;1280;49.760;9.664;2022-12-07T15:03:34;13.80;;;8.40;;
2538;SDS011;1280;49.760;9.664;2022-12-07T15:06:05;12.95;;;7.82;;
2538;SDS011;1280;49.760;9.664;2022-12-07T15:08:33;13.43;;;7.55;;
2538;SDS011;1280;49.760;9.664;2022-12-07T15:11:01;12.50;;;7.20;;
2538;SDS011;1280;49.760;9.664;2022-12-07T15:13:30;11.60;;;7.28;;
2538;SDS011;1280;49.760;9.664;2022-12-07T15:16:19;12.70;;;8.10;;
2538;SDS011;1280;49.760;9.664;2022-12-07T15:18:48;14.80;;;8.35;;
2538;SDS011;1280;49.760;9.664;2022-12-07T15:21:36;12.18;;;7.22;;
2538;SDS011;1280;49.760;9.664;2022-12-07T15:24:04;11.90;;;7.80;;
2538;SDS011;1280;49.760;9.664;2022-12-07T15:26:33;13.45;;;8.13;;
2538;SDS011;1280;49.760;9.664;2022-12-07T15:29:02;14.00;;;7.82;;
2538;SDS011;1280;49.760;9.664;2022-12-07T15:31:30;11.95;;;7.22;;
2538;SDS011;1280;49.760;9.664;2022-12-07T15:34:18;14.43;;;7.63;;
2538;SDS011;1280;49.760;9.664;2022-12-07T15:36:46;14.40;;;9.10;;
2538;SDS011;1280;49.760;9.664;2022-12-07T15:39:14;12.48;;;7.10;;
2538;SDS011;1280;49.760;9.664;2022-12-07T15:41:42;12.60;;;7.32;;
2538;SDS011;1280;49.760;9.664;2022-12-07T15:44:12;15.68;;;7.15;;
2538;SDS011;1280;49.760;9.664;2022-12-07T15:46:58;9.55;;;5.50;;
2538;SDS011;1280;49.760;9.664;2022-12-07T15:49:27;13.30;;;6.40;;
2538;SDS011;1280;49.760;9.664;2022-12-07T15:51:55;12.52;;;6.90;;
2538;SDS011;1280;49.760;9.664;2022-12-07T15:54:24;11.40;;;6.53;;
2538;SDS011;1280;49.760;9.664;2022-12-07T15:56:55;13.40;;;6.85;;
2538;SDS011;1280;49.760;9.664;2022-12-07T15:59:25;20.58;;;6.63;;
2538;SDS011;1280;49.760;9.664;2022-12-07T16:01:54;12.40;;;6.65;;